Muir Army Air Field, PA

10:03 PM EDT on March 27, 2015 (GMT -0400)
Muir Army Air Field | | Change Station
CLOSE
Current Station
Airport
Location: Fort Indiantown Gap,
Elevation: 489 ft
Nearby Weather Stations

Elev 489 ft 40.43 °N, 76.57 °W | Updated 5 minutes ago

Overcast
Overcast
41 °F
Feels Like 34 °F
N
10
Wind Variable Wind from West

Today
High -- | Low -- °F
--% Chance of Precip.
Yesterday
High -- | Low -- °F
Precip. -- in
6:58 AM 7:25 PM
First Quarter, 58% visible
Pressure 29.84 in
Visibility 10.0 miles
Clouds Overcast 4800 ft
Windchill 34 °F
Dew Point 24 °F
Humidity 50%
Rainfall 0.01 in
Snow Depth Not available.
UV 0 out of 12
Pollen 7.30 out of 12
Air Quality Not available.
Flu Activity Not available.
METAR KMUI 280158Z AUTO 28009KT 10SM OVC048 05/M05 A2982 RMK AO2 SLP104 T00491047

More Conditions Fewer Conditions

Pressure 29.84 in
Visibility 10.0 miles
Clouds Overcast 4800 ft
Windchill 34 °F
Dew Point 24 °F
Humidity 50%
Rainfall 0.01 in
Snow Depth Not available.
UV 0 out of 12
Pollen 7.30 out of 12
Air Quality Not available.
Flu Activity Not available.
METAR KMUI 280158Z AUTO 28009KT 10SM OVC048 05/M05 A2982 RMK AO2 SLP104 T00491047

More Conditions Fewer Conditions

10-Day Weather Forecast

Almanac

Astronomy

Mar. 27, 2015 Rise Set
Actual Time
Civil Twilight
Nautical Twilight
Astronomical Twilight
Moon
Length of Visible Light
Length of Day
Tomorrow will be .
, % of the Moon is Illuminated

Today's Extremes

State Highs State Lows

Community

WunderPhotos

Upload Photos

1,808,911 photos uploaded!

WunderBlogs® & News

Nearby

Air Quality

  Air Quality AQ Index Pollutant
Not available.

Snow Depth

Station Depth Elevation

Earthquake Activity

City Distance Mag. Time & Date
Minimum magnitude displayed is 2.5.

Coastal Water Temperatures

Place Temperature

Stations

Nearby Weather Stations

Station Location Temp. Windchill Dew Point Humidity Wind Precip. Elev Updated Type